createdAt,value
2019-05-06T19:36:55.496Z,15.78
2019-05-06T19:42:02.921Z,15.38
2019-05-06T19:47:08.037Z,15.10
2019-05-06T19:52:13.464Z,14.57
2019-05-06T19:57:18.659Z,15.33
2019-05-06T20:02:25.852Z,16.63
2019-05-06T20:07:37.937Z,14.10
2019-05-06T20:12:59.474Z,15.80
2019-05-06T20:17:59.808Z,17.27
2019-05-06T20:23:05.062Z,15.70
2019-05-06T20:28:13.165Z,17.80
2019-05-06T20:33:18.159Z,15.23
2019-05-06T20:38:23.905Z,14.83
2019-05-06T20:43:29.383Z,17.42
2019-05-06T20:48:34.996Z,17.07
2019-05-06T20:53:42.996Z,18.15
2019-05-06T20:58:47.763Z,18.85
2019-05-06T21:03:53.074Z,17.87
2019-05-06T21:08:58.842Z,16.43
2019-05-06T21:14:04.055Z,14.33
2019-05-06T21:19:09.064Z,16.15
2019-05-06T21:24:14.504Z,17.95
2019-05-06T21:29:20.172Z,16.15
2019-05-06T21:34:25.432Z,16.57
2019-05-06T21:39:32.587Z,17.35
2019-05-06T21:44:38.112Z,16.13
2019-05-06T21:49:44.479Z,19.10
2019-05-06T21:54:49.749Z,18.57
2019-05-06T21:59:55.242Z,19.30
2019-05-06T22:05:02.727Z,18.27
2019-05-06T22:10:08.568Z,18.17
2019-05-06T22:15:13.865Z,25.45
2019-05-06T22:20:19.020Z,23.18
2019-05-06T22:25:24.019Z,19.20
2019-05-06T22:30:29.207Z,20.50
2019-05-06T22:35:34.259Z,18.67
2019-05-06T22:40:42.423Z,18.97
2019-05-06T22:45:47.099Z,20.23
2019-05-06T22:50:53.096Z,18.92
2019-05-06T22:56:02.602Z,21.62
2019-05-06T23:01:14.655Z,19.48
2019-05-06T23:06:21.900Z,22.32
2019-05-06T23:11:27.406Z,22.50
2019-05-06T23:16:34.862Z,22.83
2019-05-06T23:21:39.312Z,19.67
2019-05-06T23:26:44.883Z,18.05
2019-05-06T23:31:52.127Z,19.33
2019-05-06T23:37:28.510Z,21.67
2019-05-06T23:43:12.524Z,19.60
2019-05-06T23:48:54.089Z,19.05
2019-05-06T23:54:35.488Z,18.63
2019-05-06T23:59:42.973Z,17.52
